Time;durP1;ratioP1;P1;durP2;ratioP2;P2;SDS_P1;SDS_P2;PMS_P1;PMS_P2;Temp;Humidity;BMP_temperature;BMP_pressure;BME280_temperature;BME280_humidity;BME280_pressure;Samples;Min_cycle;Max_cycle;Signal;HPM_P1;HPM_P2
2023/03/28 00:01:10;;;;;;;5.43;1.33;;;;;;;0.47;100.00;101491.25;6147400;28;20396;-71
2023/03/28 00:04:10;;;;;;;13.98;2.55;;;;;;;0.34;100.00;101477.88;6145736;28;20032;-71
2023/03/28 00:07:05;;;;;;;5.60;1.45;;;;;;;0.52;100.00;101500.56;6147384;28;20024;-70
2023/03/28 00:10:00;;;;;;;5.13;1.63;;;;;;;0.60;100.00;101498.50;6147008;28;20039;-71
2023/03/28 00:12:56;;;;;;;10.10;1.70;;;;;;;0.55;100.00;101482.19;6145877;28;20028;-70
2023/03/28 00:15:51;;;;;;;5.83;1.90;;;;;;;0.49;100.00;101481.63;6146362;28;20461;-71
2023/03/28 00:18:49;;;;;;;9.60;2.45;;;;;;;0.55;100.00;101497.00;6146687;28;20036;-71
2023/03/28 00:21:47;;;;;;;10.55;1.88;;;;;;;0.38;100.00;101484.63;6148223;28;20107;-71
2023/03/28 00:24:42;;;;;;;6.30;1.48;;;;;;;0.41;100.00;101488.88;6145951;28;20389;-70
2023/03/28 00:27:38;;;;;;;5.80;1.83;;;;;;;0.65;100.00;101520.97;6146584;28;20039;-71
2023/03/28 00:30:33;;;;;;;8.43;1.87;;;;;;;0.58;100.00;101522.97;6146546;28;20039;-71
2023/03/28 00:33:28;;;;;;;7.67;1.63;;;;;;;0.31;100.00;101508.44;6153971;28;20042;-70
2023/03/28 00:36:28;;;;;;;8.50;1.73;;;;;;;0.26;100.00;101510.38;6171248;28;20024;-70
2023/03/28 00:39:26;;;;;;;7.75;1.63;;;;;;;0.25;100.00;101504.31;6170948;28;20043;-70
2023/03/28 00:42:24;;;;;;;12.23;2.80;;;;;;;0.26;100.00;101513.84;6171165;28;20122;-71
2023/03/28 00:45:20;;;;;;;18.70;2.20;;;;;;;0.25;100.00;101513.88;6170433;28;20066;-71
2023/03/28 00:48:15;;;;;;;9.60;1.85;;;;;;;0.33;100.00;101517.88;6156755;28;20028;-71
2023/03/28 00:51:13;;;;;;;6.95;1.45;;;;;;;0.38;100.00;101533.38;6146459;28;20512;-70
2023/03/28 00:54:11;;;;;;;12.95;1.80;;;;;;;0.26;100.00;101515.59;6144254;28;20038;-70
2023/03/28 00:57:08;;;;;;;10.00;1.90;;;;;;;0.40;100.00;101534.16;6156968;28;20027;-70
2023/03/28 01:00:06;;;;;;;14.70;1.98;;;;;;;0.33;100.00;101527.47;6169442;28;20035;-70
2023/03/28 01:03:05;;;;;;;8.70;1.60;;;;;;;0.37;100.00;101536.88;6149583;28;20041;-71
2023/03/28 01:06:03;;;;;;;9.45;1.90;;;;;;;0.34;100.00;101530.03;6145598;28;20123;-71
2023/03/28 01:09:00;;;;;;;11.95;2.78;;;;;;;0.46;100.00;101529.50;6145637;28;20460;-71
2023/03/28 01:11:57;;;;;;;7.60;1.42;;;;;;;0.47;100.00;101538.19;6145072;28;20039;-71
2023/03/28 01:14:53;;;;;;;7.20;1.40;;;;;;;0.59;100.00;101555.97;6144756;28;20071;-70
2023/03/28 01:17:49;;;;;;;4.07;1.38;;;;;;;0.53;100.00;101541.41;6171488;28;20028;-71
2023/03/28 01:21:00;;;;;;;6.40;1.60;;;;;;;0.63;100.00;101564.50;6179573;28;20035;-70
2023/03/28 01:24:17;;;;;;;6.82;1.27;;;;;;;0.56;100.00;101548.28;6187892;28;20114;-71
2023/03/28 01:27:50;;;;;;;7.20;1.80;;;;;;;0.71;100.00;101573.72;6157010;28;20150;-70
2023/03/28 01:31:10;;;;;;;5.80;1.20;;;;;;;0.74;100.00;101575.38;6156983;28;20035;-71
2023/03/28 01:34:29;;;;;;;7.78;1.55;;;;;;;0.79;100.00;101576.88;6155163;28;20526;-71
2023/03/28 01:37:43;;;;;;;8.85;1.50;;;;;;;0.83;100.00;101585.44;6149503;28;20032;-71
2023/03/28 01:40:55;;;;;;;6.03;1.00;;;;;;;0.72;100.00;101566.75;6149636;28;20110;-72
2023/03/28 01:43:59;;;;;;;7.32;1.27;;;;;;;0.80;100.00;101580.34;6156485;28;20488;-71
2023/03/28 01:47:01;;;;;;;8.23;1.75;;;;;;;0.80;100.00;101581.19;6174117;28;20027;-71
2023/03/28 01:50:17;;;;;;;6.20;1.13;;;;;;;0.87;100.00;101587.84;6174875;28;20028;-71
2023/03/28 01:53:29;;;;;;;7.97;1.50;;;;;;;0.72;100.00;101572.84;6173883;28;20118;-71
2023/03/28 01:56:36;;;;;;;5.70;1.52;;;;;;;0.78;100.00;101583.03;6159780;28;20049;-71
2023/03/28 01:59:36;;;;;;;5.13;0.98;;;;;;;0.79;100.00;101584.72;6175000;28;20028;-71
2023/03/28 02:02:35;;;;;;;6.35;1.30;;;;;;;0.85;100.00;101600.13;6166256;28;20058;-71
2023/03/28 02:05:32;;;;;;;10.65;2.03;;;;;;;0.72;100.00;101593.72;6148187;28;20032;-71
2023/03/28 02:08:29;;;;;;;9.98;1.98;;;;;;;0.81;100.00;101603.78;6148767;28;20039;-71
2023/03/28 02:11:25;;;;;;;10.23;2.22;;;;;;;0.76;100.00;101610.94;6148463;28;20032;-71
2023/03/28 02:14:25;;;;;;;13.30;2.05;;;;;;;0.60;100.00;101594.19;6148019;28;20055;-71
2023/03/28 02:17:21;;;;;;;13.27;1.67;;;;;;;0.61;100.00;101611.56;6149535;28;20075;-70
2023/03/28 02:20:21;;;;;;;9.70;1.55;;;;;;;0.63;100.00;101612.34;6152955;28;20032;-71
2023/03/28 02:23:21;;;;;;;12.40;2.30;;;;;;;0.63;100.00;101599.28;6172761;28;20066;-71
2023/03/28 02:26:18;;;;;;;8.68;2.03;;;;;;;0.54;100.00;101595.28;6173966;28;20031;-71
2023/03/28 02:29:14;;;;;;;7.28;1.70;;;;;;;0.53;100.00;101604.03;6162552;28;20085;-70
2023/03/28 02:32:10;;;;;;;12.68;2.35;;;;;;;0.63;100.00;101614.09;6148050;28;20568;-71
2023/03/28 02:35:06;;;;;;;9.65;2.22;;;;;;;0.59;100.00;101600.34;6147681;28;20093;-71
2023/03/28 02:38:22;;;;;;;9.57;1.80;;;;;;;0.79;100.00;101623.84;6148009;28;20028;-71
2023/03/28 02:41:44;;;;;;;8.18;2.15;;;;;;;0.80;100.00;101614.28;6148275;28;20089;-71
2023/03/28 02:45:10;;;;;;;9.43;1.95;;;;;;;0.80;100.00;101616.88;6168722;28;20031;-71
2023/03/28 02:48:10;;;;;;;8.73;1.75;;;;;;;0.74;100.00;101610.16;6173693;28;20481;-71
2023/03/28 02:51:22;;;;;;;11.65;1.73;;;;;;;0.53;100.00;101592.75;6172149;28;20035;-71
2023/03/28 02:54:29;;;;;;;7.60;1.70;;;;;;;0.59;100.00;101608.16;6171345;28;20039;-70
2023/03/28 02:57:32;;;;;;;6.90;1.45;;;;;;;0.69;100.00;101625.16;6157526;28;20085;-70
2023/03/28 03:00:28;;;;;;;8.15;1.75;;;;;;;0.69;100.00;101619.06;6144263;28;20032;-70
2023/03/28 03:03:24;;;;;;;7.32;2.78;;;;;;;0.72;100.00;101622.41;6147938;28;20035;-71
2023/03/28 03:06:20;;;;;;;5.07;1.58;;;;;;;0.81;100.00;101629.03;6148854;28;20028;-70
2023/03/28 03:09:15;;;;;;;7.32;1.60;;;;;;;0.72;100.00;101627.63;6148518;28;20097;-71
2023/03/28 03:12:11;;;;;;;6.38;1.88;;;;;;;0.74;100.00;101641.47;6146823;28;20554;-71
2023/03/28 03:15:07;;;;;;;8.00;2.03;;;;;;;0.78;100.00;101645.66;6147862;28;20380;-71
2023/03/28 03:18:03;;;;;;;7.15;1.48;;;;;;;0.73;100.00;101641.53;6152089;28;20031;-71
2023/03/28 03:21:00;;;;;;;15.18;2.95;;;;;;;0.62;100.00;101638.50;6154172;28;20035;-71
2023/03/28 03:23:55;;;;;;;13.10;2.13;;;;;;;0.58;100.00;101637.75;6167013;28;20085;-70
2023/03/28 03:26:51;;;;;;;14.67;1.70;;;;;;;0.56;100.00;101635.22;6148066;28;20043;-71
2023/03/28 03:29:47;;;;;;;12.73;2.43;;;;;;;0.61;100.00;101650.69;6148210;28;20081;-71
2023/03/28 03:32:42;;;;;;;14.68;2.20;;;;;;;0.53;100.00;101653.59;6147808;28;20036;-71
2023/03/28 03:35:40;;;;;;;10.93;1.80;;;;;;;0.40;100.00;101635.88;6147937;28;20036;-71
2023/03/28 03:38:36;;;;;;;4.93;1.40;;;;;;;0.48;100.00;101658.16;6177143;28;20027;-71
2023/03/28 03:41:31;;;;;;;16.03;2.00;;;;;;;0.49;100.00;101659.00;6189094;28;20508;-71
2023/03/28 03:44:26;;;;;;;8.97;2.00;;;;;;;0.41;100.00;101645.38;6171950;28;20035;-71
2023/03/28 03:47:22;;;;;;;9.63;1.83;;;;;;;0.49;100.00;101669.44;6172057;28;20083;-70
2023/03/28 03:50:17;;;;;;;7.33;1.33;;;;;;;0.42;100.00;101652.31;6172061;28;20392;-71
2023/03/28 03:53:12;;;;;;;10.07;1.98;;;;;;;0.39;100.00;101665.47;6171921;28;20289;-71
2023/03/28 03:56:08;;;;;;;10.40;1.80;;;;;;;0.34;100.00;101668.25;6157437;28;20036;-71
2023/03/28 03:59:04;;;;;;;12.23;1.88;;;;;;;0.33;100.00;101676.97;6172085;28;20023;-71
2023/03/28 04:01:59;;;;;;;7.53;1.73;;;;;;;0.40;100.00;101680.22;6167820;28;20032;-71
2023/03/28 04:04:55;;;;;;;7.53;1.98;;;;;;;0.25;100.00;101665.13;6146846;28;20078;-71
2023/03/28 04:07:51;;;;;;;8.32;1.70;;;;;;;0.31;100.00;101688.38;6147065;28;20036;-71
2023/03/28 04:10:46;;;;;;;7.10;2.00;;;;;;;0.22;100.00;101680.91;6148000;28;20081;-72
2023/03/28 04:13:41;;;;;;;7.00;1.58;;;;;;;0.14;100.00;101660.31;6158999;28;20403;-72
2023/03/28 04:16:37;;;;;;;11.90;2.00;;;;;;;0.26;100.00;101677.28;6146680;28;20077;-70
2023/03/28 04:19:33;;;;;;;7.35;1.80;;;;;;;0.25;100.00;101675.56;6155461;28;20423;-72
2023/03/28 04:22:28;;;;;;;6.40;2.10;;;;;;;0.21;100.00;101674.84;6171244;28;20035;-71
2023/03/28 04:25:23;;;;;;;8.18;2.25;;;;;;;0.10;100.00;101665.72;6170677;28;20027;-72
2023/03/28 04:28:19;;;;;;;4.90;1.80;;;;;;;0.11;100.00;101664.81;6171327;28;20384;-72
2023/03/28 04:31:14;;;;;;;12.47;1.90;;;;;;;0.11;100.00;101670.03;6158910;28;20123;-71
2023/03/28 04:34:09;;;;;;;10.47;2.20;;;;;;;0.14;100.00;101673.34;6149363;28;20028;-71
2023/03/28 04:37:05;;;;;;;6.90;2.80;;;;;;;0.21;100.00;101680.06;6146356;28;20485;-71
2023/03/28 04:40:00;;;;;;;9.10;1.90;;;;;;;0.31;100.00;101706.63;6160630;28;20042;-71
2023/03/28 04:42:55;;;;;;;9.93;1.93;;;;;;;0.30;100.00;101711.00;6171007;28;20031;-71
2023/03/28 04:45:51;;;;;;;12.90;2.33;;;;;;;0.31;100.00;101696.22;6170228;28;20031;-71
2023/03/28 04:48:47;;;;;;;3.30;1.65;;;;;;;0.44;100.00;101700.06;6171059;28;20272;-71
2023/03/28 04:51:42;;;;;;;5.33;1.80;;;;;;;0.44;100.00;101716.56;6152821;28;20054;-71
2023/03/28 04:54:37;;;;;;;6.72;1.60;;;;;;;0.35;100.00;101700.41;6145640;28;20048;-72
2023/03/28 04:57:33;;;;;;;8.23;1.93;;;;;;;0.28;100.00;101701.53;6146040;28;20036;-71
2023/03/28 05:00:29;;;;;;;11.75;1.92;;;;;;;0.33;100.00;101725.69;6170654;28;20055;-70
2023/03/28 05:03:24;;;;;;;4.13;1.53;;;;;;;0.25;100.00;101712.94;6153988;28;20054;-70
2023/03/28 05:06:20;;;;;;;8.80;1.80;;;;;;;0.34;100.00;101730.00;6168632;28;20024;-70
2023/03/28 05:09:16;;;;;;;12.80;2.17;;;;;;;0.25;100.00;101723.38;6170718;28;20118;-71
2023/03/28 05:12:11;;;;;;;10.30;2.05;;;;;;;0.15;100.00;101723.75;6170529;28;20092;-70
2023/03/28 05:15:07;;;;;;;10.40;1.57;;;;;;;0.19;100.00;101744.44;6169823;28;20031;-70
2023/03/28 05:18:02;;;;;;;9.63;1.35;;;;;;;0.16;100.00;101747.19;6167356;28;20023;-70
2023/03/28 05:20:58;;;;;;;12.68;2.53;;;;;;;0.06;100.00;101742.31;6169176;28;20031;-70
2023/03/28 05:23:53;;;;;;;5.07;1.93;;;;;;;0.05;100.00;101751.06;6169712;28;20423;-70
2023/03/28 05:26:48;;;;;;;6.63;1.80;;;;;;;0.00;100.00;101754.66;6170345;28;20084;-70
2023/03/28 05:29:44;;;;;;;12.33;1.67;;;;;;;0.12;100.00;101778.63;6170350;28;20042;-70
2023/03/28 05:32:39;;;;;;;4.93;1.83;;;;;;;0.00;100.00;101759.88;6162509;28;20032;-70
2023/03/28 05:35:36;;;;;;;12.63;1.53;;;;;;;0.02;100.00;101765.06;6144951;28;20548;-70
2023/03/28 05:38:32;;;;;;;13.77;1.95;;;;;;;0.17;100.00;101787.97;6145813;28;20526;-70
2023/03/28 05:41:27;;;;;;;15.43;2.58;;;;;;;0.11;100.00;101766.50;6145618;28;20032;-70
2023/03/28 05:44:23;;;;;;;10.57;3.00;;;;;;;0.30;100.00;101778.00;6145373;28;20039;-70
2023/03/28 05:47:19;;;;;;;7.50;1.87;;;;;;;0.36;100.00;101776.00;6146042;28;20043;-70
2023/03/28 05:50:14;;;;;;;14.68;2.10;;;;;;;0.37;100.00;101771.63;6158546;28;20116;-71
2023/03/28 05:53:10;;;;;;;6.63;1.80;;;;;;;0.44;100.00;101770.50;6146833;28;20036;-71
2023/03/28 05:56:05;;;;;;;14.48;2.45;;;;;;;0.40;100.00;101779.34;6157691;28;20031;-70
2023/03/28 05:59:01;;;;;;;10.75;1.80;;;;;;;0.51;100.00;101792.84;6161834;28;20024;-70
2023/03/28 06:01:56;;;;;;;15.23;2.10;;;;;;;0.42;100.00;101778.38;6141480;28;20055;-70
2023/03/28 06:04:52;;;;;;;8.33;1.30;;;;;;;0.46;100.00;101795.63;6146150;28;20274;-71
2023/03/28 06:07:48;;;;;;;11.77;2.30;;;;;;;0.47;100.00;101797.31;6144887;28;20031;-71
2023/03/28 06:10:43;;;;;;;11.98;2.03;;;;;;;0.58;100.00;101799.53;6149647;28;20040;-71
2023/03/28 06:13:38;;;;;;;12.33;2.53;;;;;;;0.73;100.00;101791.16;6149481;28;20038;-71
2023/03/28 06:16:34;;;;;;;13.30;2.10;;;;;;;0.88;100.00;101802.78;6149244;28;20472;-72
2023/03/28 06:19:29;;;;;;;11.00;1.60;;;;;;;1.00;100.00;101815.38;6148487;28;20066;-71
2023/03/28 06:22:25;;;;;;;9.60;1.60;;;;;;;0.93;100.00;101800.84;6149680;28;20028;-71
2023/03/28 06:25:20;;;;;;;6.38;1.30;;;;;;;0.96;100.00;101803.34;6148795;28;20309;-72
2023/03/28 06:28:16;;;;;;;6.10;1.47;;;;;;;1.11;100.00;101808.81;6149543;28;20103;-71
2023/03/28 06:31:11;;;;;;;6.87;1.50;;;;;;;1.15;100.00;101826.09;6148961;28;20081;-72
2023/03/28 06:34:06;;;;;;;14.00;2.60;;;;;;;1.23;100.00;101830.16;6147368;28;20262;-71
2023/03/28 06:37:02;;;;;;;7.93;1.73;;;;;;;1.23;100.00;101811.84;6150367;28;20040;-71
2023/03/28 06:39:57;;;;;;;10.93;1.60;;;;;;;1.28;100.00;101828.22;6149062;28;20101;-71
2023/03/28 06:42:52;;;;;;;12.37;1.73;;;;;;;1.27;100.00;101810.84;6149651;28;20058;-71
2023/03/28 06:45:48;;;;;;;15.83;2.60;;;;;;;1.60;100.00;101835.66;6148368;28;20024;-71
2023/03/28 06:48:43;;;;;;;6.07;1.30;;;;;;;1.66;100.00;101817.94;6148944;28;20039;-71
2023/03/28 06:51:38;;;;;;;7.53;1.60;;;;;;;1.70;100.00;101821.28;6148624;28;20038;-71
2023/03/28 06:54:33;;;;;;;11.57;1.67;;;;;;;1.82;100.00;101830.41;6159645;28;20036;-71
2023/03/28 06:57:29;;;;;;;10.27;1.87;;;;;;;1.79;100.00;101818.31;6148614;28;20035;-72
2023/03/28 07:00:24;;;;;;;6.63;1.37;;;;;;;1.89;100.00;101831.84;6149092;28;20475;-72
2023/03/28 07:03:20;;;;;;;5.47;1.38;;;;;;;1.68;100.00;101830.97;6145963;28;20066;-72
2023/03/28 07:06:15;;;;;;;8.30;1.93;;;;;;;1.63;100.00;101835.53;6146524;28;20062;-71
2023/03/28 07:09:10;;;;;;;10.67;1.40;;;;;;;1.67;100.00;101837.94;6147229;28;20023;-72
2023/03/28 07:12:06;;;;;;;7.07;1.80;;;;;;;1.67;100.00;101847.53;6157015;28;20046;-72
2023/03/28 07:15:01;;;;;;;5.45;1.35;;;;;;;1.80;100.00;101838.28;6145478;28;20036;-72
2023/03/28 07:17:56;;;;;;;12.07;1.80;;;;;;;2.16;100.00;101852.47;6147243;28;20072;-71
2023/03/28 07:20:53;;;;;;;10.65;1.55;;;;;;;2.56;100.00;101866.44;6147829;28;20834;-72
2023/03/28 07:23:49;;;;;;;7.00;1.30;;;;;;;2.70;100.00;101866.69;6153217;28;20080;-72
2023/03/28 07:26:44;;;;;;;12.40;2.42;;;;;;;2.75;99.88;101862.09;6157225;28;20032;-72
2023/03/28 07:29:40;;;;;;;9.10;2.15;;;;;;;2.64;98.65;101866.97;6148106;28;20070;-72
2023/03/28 07:32:35;;;;;;;11.67;1.47;;;;;;;2.61;98.80;101865.31;6147896;28;20036;-71
2023/03/28 07:35:31;;;;;;;5.53;1.60;;;;;;;2.89;98.32;101876.28;6154484;28;20020;-71
2023/03/28 07:38:26;;;;;;;6.35;1.40;;;;;;;3.45;98.75;101873.69;6147979;28;20122;-72
2023/03/28 07:41:21;;;;;;;6.53;1.33;;;;;;;3.68;97.21;101884.84;6147743;28;20119;-72
2023/03/28 07:44:17;;;;;;;7.93;1.50;;;;;;;3.85;95.80;101885.75;6146647;28;20754;-72
2023/03/28 07:47:12;;;;;;;5.45;1.38;;;;;;;3.92;94.68;101896.78;6147435;28;20040;-72
2023/03/28 07:50:08;;;;;;;12.57;1.90;;;;;;;3.51;92.53;101881.25;6147702;28;20068;-72
2023/03/28 07:53:03;;;;;;;13.93;2.05;;;;;;;3.49;93.82;101888.34;6162311;28;20384;-72
2023/03/28 07:55:59;;;;;;;8.83;1.20;;;;;;;3.45;92.15;101899.06;6156634;28;20397;-72
2023/03/28 07:58:54;;;;;;;8.27;1.50;;;;;;;3.67;93.04;101891.88;6159569;28;20038;-71
2023/03/28 08:01:49;;;;;;;5.30;1.23;;;;;;;3.93;94.12;101901.97;6169478;28;20046;-72
2023/03/28 08:04:45;;;;;;;6.40;1.50;;;;;;;3.99;91.63;101893.81;6146580;28;20628;-72
2023/03/28 08:07:44;;;;;;;4.03;1.20;;;;;;;4.07;92.26;101899.53;6165963;28;20282;-72
2023/03/28 08:10:40;;;;;;;8.20;1.83;;;;;;;4.13;91.65;101906.25;6172546;28;20034;-71
2023/03/28 08:13:35;;;;;;;10.13;2.03;;;;;;;4.06;90.15;101899.59;6183980;28;20036;-71
2023/03/28 08:16:31;;;;;;;11.80;1.73;;;;;;;4.07;89.54;101906.56;6180546;28;20341;-71
2023/03/28 08:19:27;;;;;;;7.28;1.30;;;;;;;3.95;89.51;101891.38;6147301;28;20119;-72
2023/03/28 08:22:23;;;;;;;11.97;1.77;;;;;;;3.97;89.69;101906.13;6146542;28;20077;-72
2023/03/28 08:25:18;;;;;;;5.85;1.33;;;;;;;4.04;90.09;101912.81;6146295;28;20028;-71
2023/03/28 08:28:14;;;;;;;5.90;1.30;;;;;;;3.99;89.84;101906.94;6146712;28;20109;-72
2023/03/28 08:31:13;;;;;;;4.67;1.10;;;;;;;3.91;89.97;101913.47;6146713;28;20274;-72
2023/03/28 08:34:08;;;;;;;3.22;0.93;;;;;;;4.19;90.39;101916.44;6151299;28;20106;-71
2023/03/28 08:37:04;;;;;;;2.20;1.10;;;;;;;4.55;89.97;101919.84;6170924;28;20039;-72
2023/03/28 08:39:59;;;;;;;6.40;1.60;;;;;;;4.67;88.97;101907.88;6159822;28;20369;-72
2023/03/28 08:43:13;;;;;;;12.52;1.38;;;;;;;5.17;87.90;101907.81;6146063;28;20039;-73
2023/03/28 08:46:12;;;;;;;8.77;1.60;;;;;;;5.17;86.29;101905.19;6144851;28;20035;-72
2023/03/28 08:49:13;;;;;;;6.53;1.33;;;;;;;4.95;83.22;101909.88;6159959;28;20042;-72
2023/03/28 08:52:12;;;;;;;8.55;1.50;;;;;;;4.83;84.03;101916.66;6170902;28;20027;-72
2023/03/28 08:55:22;;;;;;;8.07;1.33;;;;;;;4.97;84.24;101908.06;6159761;28;20035;-72
2023/03/28 08:58:20;;;;;;;11.40;1.85;;;;;;;4.93;83.11;101909.97;6152133;28;20537;-72
2023/03/28 09:01:19;;;;;;;10.40;1.80;;;;;;;4.74;82.94;101920.59;6145981;28;20533;-72
2023/03/28 09:04:27;;;;;;;2.55;1.08;;;;;;;4.76;84.85;101929.25;6151943;28;20039;-73
2023/03/28 09:08:30;;;;;;;11.13;1.55;;;;;;;4.99;84.59;101929.84;6146263;28;20392;-72
2023/03/28 09:11:53;;;;;;;7.45;1.38;;;;;;;4.78;84.85;101927.38;6051512;28;20132;-72
2023/03/28 09:15:00;;;;;;;5.63;1.48;;;;;;;4.65;84.86;101936.84;6145290;28;20100;-72
2023/03/28 09:18:08;;;;;;;7.88;2.42;;;;;;;4.66;85.19;101935.06;6165212;28;20046;-71
2023/03/28 09:21:19;;;;;;;4.65;1.33;;;;;;;4.93;85.15;101930.16;6169279;28;20074;-72
2023/03/28 09:24:44;;;;;;;9.00;1.15;;;;;;;5.23;84.06;101933.81;6169800;28;20498;-73
2023/03/28 09:28:04;;;;;;;8.80;1.80;;;;;;;5.43;82.69;101930.97;6161006;28;20051;-72
2023/03/28 09:30:59;;;;;;;7.25;1.23;;;;;;;5.56;82.44;101925.88;6156547;28;20046;-72
2023/03/28 09:33:57;;;;;;;6.65;1.70;;;;;;;5.58;79.72;101927.47;6146866;28;20036;-72
2023/03/28 09:36:57;;;;;;;7.68;1.50;;;;;;;5.83;79.06;101922.56;6144312;28;20024;-72
2023/03/28 09:39:53;;;;;;;4.85;0.98;;;;;;;5.71;77.53;101915.34;6145778;28;20503;-73
2023/03/28 09:43:03;;;;;;;7.07;1.80;;;;;;;5.86;77.98;101929.47;6144574;28;20035;-72
2023/03/28 09:46:01;;;;;;;4.45;1.08;;;;;;;5.76;76.75;101918.56;6149830;28;20089;-71
2023/03/28 09:48:57;;;;;;;4.30;1.05;;;;;;;5.59;75.41;101931.81;6149310;28;20032;-71
2023/03/28 09:51:56;;;;;;;5.85;1.30;;;;;;;5.52;75.53;101926.97;6149140;28;20082;-71
2023/03/28 09:54:51;;;;;;;8.80;1.30;;;;;;;5.56;75.95;101918.81;6149543;28;20040;-72
2023/03/28 09:58:09;;;;;;;5.90;0.93;;;;;;;5.53;75.42;101942.66;6152269;28;20496;-72
2023/03/28 10:01:24;;;;;;;8.25;2.97;;;;;;;5.51;76.97;101939.28;6147778;28;20028;-72
2023/03/28 10:04:29;;;;;;;8.82;1.20;;;;;;;5.64;78.32;101945.56;6148498;28;20044;-72
2023/03/28 10:07:41;;;;;;;2.90;1.17;;;;;;;5.47;75.62;101918.47;6148303;28;20503;-72
2023/03/28 10:10:38;;;;;;;4.30;1.38;;;;;;;5.50;74.91;101940.19;6144723;28;20094;-72
2023/03/28 10:14:00;;;;;;;8.10;1.70;;;;;;;5.70;74.39;101934.72;6149116;28;20377;-71
2023/03/28 10:16:57;;;;;;;4.90;1.38;;;;;;;5.57;72.83;101922.31;6138209;28;20035;-73
2023/03/28 10:20:00;;;;;;;10.65;1.50;;;;;;;5.74;72.89;101922.22;6149596;28;20426;-72
2023/03/28 10:22:56;;;;;;;5.57;1.25;;;;;;;5.95;73.71;101937.69;6148395;28;20507;-73
2023/03/28 10:25:53;;;;;;;5.27;1.10;;;;;;;5.99;73.26;101931.31;6149184;28;20032;-73
2023/03/28 10:32:40;;;;;;;6.15;0.95;;;;;;;6.36;70.80;101924.78;6171643;28;20020;-72
2023/03/28 10:35:40;;;;;;;4.45;1.15;;;;;;;6.10;67.93;101921.97;6160835;28;20028;-72
2023/03/28 10:38:43;;;;;;;8.20;1.30;;;;;;;6.14;68.42;101932.25;6142940;28;20062;-72
2023/03/28 10:41:53;;;;;;;6.65;1.15;;;;;;;6.38;70.07;101935.25;6147998;28;20115;-72
2023/03/28 10:45:00;;;;;;;4.25;1.00;;;;;;;6.57;68.94;101931.44;6141135;28;20027;-72
2023/03/28 10:47:58;;;;;;;3.65;0.85;;;;;;;6.69;67.69;101919.31;6148665;28;20074;-72
2023/03/28 10:50:55;;;;;;;9.48;1.17;;;;;;;6.69;65.14;101924.56;6149625;28;20085;-72
2023/03/28 10:53:58;;;;;;;4.80;0.93;;;;;;;6.98;63.04;101928.97;6147313;28;20058;-72
2023/03/28 10:56:56;;;;;;;5.68;1.48;;;;;;;7.40;64.16;101925.47;6147771;28;20028;-72
2023/03/28 11:00:15;;;;;;;4.10;0.95;;;;;;;7.30;63.82;101921.72;6153753;28;20475;-72
2023/03/28 11:03:17;;;;;;;8.13;1.10;;;;;;;7.23;61.94;101906.38;6142617;28;20036;-72
2023/03/28 11:06:27;;;;;;;4.35;1.52;;;;;;;7.35;64.73;101910.84;6178993;27;20044;-73
2023/03/28 11:09:32;;;;;;;7.70;1.58;;;;;;;7.27;63.88;101895.50;6153981;28;20085;-72
2023/03/28 11:12:43;;;;;;;4.57;1.17;;;;;;;7.10;62.50;101914.16;6156796;28;20028;-72
2023/03/28 11:16:05;;;;;;;12.48;1.58;;;;;;;7.57;64.99;101911.22;6143528;28;20069;-72
2023/03/28 11:19:13;;;;;;;9.02;1.48;;;;;;;7.27;63.17;101907.84;6164539;28;20039;-72
2023/03/28 11:22:40;;;;;;;4.63;1.27;;;;;;;6.84;63.30;101921.03;6146313;28;20043;-71
2023/03/28 11:25:46;;;;;;;;;;;;;;;6.68;64.34;101922.03;6171478;28;20031;-71
2023/03/28 11:28:57;;;;;;;9.38;1.10;;;;;;;6.54;63.91;101917.59;6172878;28;20035;-71
2023/03/28 11:32:04;;;;;;;10.52;1.30;;;;;;;6.57;64.24;101920.06;6172554;28;20027;-71
2023/03/28 11:35:13;;;;;;;8.40;2.22;;;;;;;6.40;62.82;101921.03;6149211;28;20032;-72
2023/03/28 11:38:21;;;;;;;7.10;1.48;;;;;;;6.19;64.13;101905.63;6189895;27;20110;-72
2023/03/28 11:41:20;;;;;;;6.65;1.77;;;;;;;6.05;65.12;101913.47;6161871;28;20120;-71
2023/03/28 11:44:45;;;;;;;7.70;1.23;;;;;;;5.92;65.63;101914.16;6137569;28;20049;-71
2023/03/28 11:47:44;;;;;;;9.57;1.33;;;;;;;5.87;67.24;101915.38;6134361;28;20123;-71
2023/03/28 11:50:57;;;;;;;8.45;1.30;;;;;;;5.83;64.16;101919.94;6147527;28;20040;-71
2023/03/28 11:54:11;;;;;;;5.38;1.25;;;;;;;5.85;62.36;101914.59;6146146;28;20027;-71
2023/03/28 11:57:17;;;;;;;5.35;1.10;;;;;;;5.74;63.26;101902.00;6146100;28;20116;-72
2023/03/28 12:00:33;;;;;;;3.67;0.85;;;;;;;5.89;62.98;101917.00;6156855;28;20039;-72
2023/03/28 12:04:01;;;;;;;3.65;1.10;;;;;;;5.92;62.40;101908.91;6148650;28;20039;-72
2023/03/28 12:07:09;;;;;;;9.48;1.10;;;;;;;5.95;62.05;101897.38;6144801;28;20035;-71
2023/03/28 12:10:44;;;;;;;5.10;1.02;;;;;;;6.29;64.27;101902.38;6137673;28;20036;-71
2023/03/28 12:13:47;;;;;;;5.40;1.27;;;;;;;6.49;62.92;101882.78;6095244;28;20222;-71
2023/03/28 12:16:47;;;;;;;9.23;1.60;;;;;;;6.70;62.52;101878.84;6141871;28;20051;-71
2023/03/28 12:19:42;;;;;;;4.03;0.90;;;;;;;6.55;61.17;101871.84;6139881;28;20027;-72
2023/03/28 12:22:41;;;;;;;8.77;1.38;;;;;;;6.56;59.62;101871.75;6145393;28;20060;-70
2023/03/28 12:25:58;;;;;;;4.75;1.10;;;;;;;6.53;59.56;101874.59;6162984;28;20119;-73
2023/03/28 12:28:55;;;;;;;6.35;0.90;;;;;;;6.44;59.14;101871.66;6164322;28;20036;-70
2023/03/28 12:31:59;;;;;;;8.88;1.38;;;;;;;6.77;62.08;101882.78;6138256;28;20040;-71
2023/03/28 12:35:04;;;;;;;9.73;1.75;;;;;;;6.74;59.11;101879.50;6160036;28;20032;-71
2023/03/28 12:38:31;;;;;;;5.68;1.27;;;;;;;6.93;58.48;101878.28;6151259;28;20035;-72
2023/03/28 12:41:30;;;;;;;5.40;1.00;;;;;;;7.25;58.48;101875.44;6145526;28;20039;-72
2023/03/28 12:44:28;;;;;;;4.28;0.90;;;;;;;7.08;56.44;101869.44;6144627;28;20107;-71
2023/03/28 12:47:27;;;;;;;3.65;0.93;;;;;;;6.98;57.48;101860.41;6145034;28;20391;-71
2023/03/28 12:50:31;;;;;;;6.93;1.30;;;;;;;6.90;57.86;101865.28;6171161;28;20039;-72
2023/03/28 12:53:30;;;;;;;4.70;1.00;;;;;;;6.94;58.33;101869.44;6156989;28;20078;-72
2023/03/28 12:56:26;;;;;;;4.78;1.23;;;;;;;7.05;57.50;101867.00;6143556;28;20028;-72
2023/03/28 12:59:40;;;;;;;4.78;0.95;;;;;;;7.34;55.30;101859.06;6147907;28;20050;-72
2023/03/28 13:02:56;;;;;;;4.03;1.00;;;;;;;7.69;53.57;101865.56;6147594;28;20063;-71
2023/03/28 13:06:07;;;;;;;6.20;1.38;;;;;;;7.70;52.13;101860.16;6144975;28;20100;-71
2023/03/28 13:09:39;;;;;;;4.78;0.93;;;;;;;7.71;52.24;101853.09;6160868;28;20039;-71
2023/03/28 13:12:52;;;;;;;4.78;1.10;;;;;;;7.85;51.93;101868.91;6140911;28;20075;-70
2023/03/28 13:15:55;;;;;;;;;;;;;;;8.20;52.09;101863.91;6145583;28;20032;-70
2023/03/28 13:19:11;;;;;;;5.45;1.50;;;;;;;8.25;51.41;101836.25;6144148;28;20371;-71
2023/03/28 13:22:39;;;;;;;7.40;1.25;;;;;;;8.32;50.97;101841.97;6160451;28;20044;-70
2023/03/28 13:25:35;;;;;;;2.50;1.08;;;;;;;8.43;50.97;101854.47;6153425;28;20115;-71
2023/03/28 13:28:40;;;;;;;6.13;1.10;;;;;;;8.22;47.44;101847.00;6144374;28;20036;-71
2023/03/28 13:31:41;;;;;;;4.30;0.80;;;;;;;8.34;47.08;101843.56;6144708;28;20411;-70
2023/03/28 13:34:36;;;;;;;2.75;1.30;;;;;;;8.26;49.54;101845.84;6144975;28;20032;-70
2023/03/28 13:37:40;;;;;;;4.23;1.10;;;;;;;8.13;49.59;101842.34;6155481;28;20031;-71
2023/03/28 13:40:42;;;;;;;6.32;1.20;;;;;;;8.01;50.58;101837.03;6143033;28;20025;-71
2023/03/28 13:43:38;;;;;;;6.80;1.42;;;;;;;8.02;50.32;101839.56;6133010;28;20060;-72
2023/03/28 13:46:38;;;;;;;3.10;0.80;;;;;;;7.94;49.42;101819.88;6139014;28;20051;-70
2023/03/28 13:49:40;;;;;;;4.18;0.90;;;;;;;8.03;49.16;101825.41;6142262;28;20140;-71
2023/03/28 13:52:36;;;;;;;3.13;0.93;;;;;;;8.55;48.93;101819.28;6164247;28;20880;-70
2023/03/28 13:55:32;;;;;;;3.05;1.10;;;;;;;9.19;47.09;101797.03;6150121;28;20036;-70
2023/03/28 13:58:28;;;;;;;3.27;0.90;;;;;;;8.87;46.91;101812.56;6145622;28;20093;-71
2023/03/28 14:01:25;;;;;;;4.38;1.00;;;;;;;8.52;46.89;101812.41;6153103;28;20388;-71
2023/03/28 14:04:26;;;;;;;5.75;1.02;;;;;;;8.11;47.82;101801.97;6141435;28;20075;-71
2023/03/28 14:07:24;;;;;;;5.07;1.15;;;;;;;7.92;48.68;101806.78;6162404;28;20119;-70